Thunder radar more information blitzortung!


Radar de pluja more information rain snow radar


Visita la nostra xarxa de llocs de meteo:

Template documentation
and downloads

And another site



No particular awareness of the weather is required.    There are no Weather-warnings

Pagina Historial Weather Underground text

Diari Resum Juliol 24, 2017 Unitats:  Mètric    Imperial   Tant
« Previous Dia
SegĂźent Dia »
Diari Setmana Mensual Anual Personalitzada
  Maxima: Minima: Media:
Temperatura: 34.0 °C 16.8 °C 25.7 °C
Punt de rosada: 18.0 °C 11.9 °C 16.1 °C
Humitat: 95 % 31 % 58 %
Wind Speed: 24.1 km/h 0.0 km/h 8.9 km/h
RĂ fegues de vent: 24.1 km/h - -
Vent:- - SSE
Pression baro: 1015.8 hPa 1010.7 hPa -
Precipitacions: 0.0 mm    
Historical Graphs
 
 
Dades de taula per Juliol 24, 2017
Temps Temperatura Punt de rosada Pression baro Vent Wind Speed RĂ fegues de vent Humitat Rainfall Rate (Hourly)
00:03 19.0 °C 17.3 °C 1015.8 hPa Calm     90 % 0.0 mm
00:05 17.3 °C 16.3 °C 1013.8 hPa WSW 1.6 km/h 3.2 km/h 94 % 0.0 mm
00:15 17.2 °C 16.1 °C 1013.8 hPa SW 3.2 km/h 4.8 km/h 93 % 0.0 mm
00:25 17.1 °C 15.9 °C 1013.8 hPa SW 3.2 km/h 4.8 km/h 93 % 0.0 mm
00:35 17.1 °C 15.9 °C 1013.8 hPa SW 3.2 km/h 4.8 km/h 93 % 0.0 mm
00:45 17.1 °C 15.9 °C 1013.8 hPa WSW 3.2 km/h 4.8 km/h 93 % 0.0 mm
00:55 17.1 °C 15.9 °C 1013.8 hPa WSW 1.6 km/h 3.2 km/h 93 % 0.0 mm
01:05 17.0 °C 16.0 °C 1013.8 hPa SW 1.6 km/h 4.8 km/h 94 % 0.0 mm
01:15 17.0 °C 16.0 °C 1013.8 hPa Calm   3.2 km/h 94 % 0.0 mm
01:25 17.0 °C 16.0 °C 1013.8 hPa Calm     94 % 0.0 mm
01:35 16.9 °C 16.1 °C 1013.8 hPa SW 3.2 km/h 4.8 km/h 95 % 0.0 mm
01:45 16.8 °C 16.0 °C 1013.8 hPa Calm   4.8 km/h 95 % 0.0 mm
01:55 16.8 °C 16.0 °C 1013.8 hPa Calm     95 % 0.0 mm
02:05 16.9 °C 16.1 °C 1012.8 hPa Calm     95 % 0.0 mm
02:15 17.2 °C 16.4 °C 1012.8 hPa Calm   1.6 km/h 95 % 0.0 mm
02:25 17.3 °C 16.5 °C 1013.8 hPa Calm   1.6 km/h 95 % 0.0 mm
02:35 17.4 °C 16.6 °C 1013.8 hPa ENE 1.6 km/h 1.6 km/h 95 % 0.0 mm
02:45 17.6 °C 16.8 °C 1013.8 hPa Calm     95 % 0.0 mm
02:55 18.0 °C 16.8 °C 1013.8 hPa Calm   3.2 km/h 93 % 0.0 mm
03:05 18.5 °C 17.2 °C 1013.8 hPa Calm   1.6 km/h 92 % 0.0 mm
03:15 19.1 °C 17.4 °C 1013.8 hPa NE 1.6 km/h 1.6 km/h 90 % 0.0 mm
03:25 20.2 °C 17.9 °C 1013.8 hPa ENE 3.2 km/h 3.2 km/h 87 % 0.0 mm
03:35 20.8 °C 17.6 °C 1013.8 hPa ENE 3.2 km/h 4.8 km/h 82 % 0.0 mm
03:45 21.1 °C 17.7 °C 1013.8 hPa NE 1.6 km/h 3.2 km/h 81 % 0.0 mm
03:55 21.1 °C 17.1 °C 1013.8 hPa WSW 3.2 km/h 6.4 km/h 78 % 0.0 mm
04:05 21.2 °C 16.8 °C 1012.8 hPa WSW 3.2 km/h 4.8 km/h 76 % 0.0 mm
04:15 21.7 °C 16.9 °C 1012.8 hPa WSW 1.6 km/h 3.2 km/h 74 % 0.0 mm
04:25 22.8 °C 17.7 °C 1012.8 hPa West 1.6 km/h 4.8 km/h 73 % 0.0 mm
04:35 22.8 °C 17.5 °C 1013.8 hPa WNW 4.8 km/h 8.0 km/h 72 % 0.0 mm
04:45 23.1 °C 17.1 °C 1013.8 hPa WNW 3.2 km/h 8.0 km/h 69 % 0.0 mm
04:55 23.7 °C 16.9 °C 1013.8 hPa NNW 4.8 km/h 6.4 km/h 66 % 0.0 mm
05:00 23.8 °C 17.6 °C 1013.8 hPa North 3.2 km/h 4.8 km/h 68 % 0.0 mm
10:04 24.0 °C 17.3 °C 1013.8 hPa SSW 3.7 km/h 3.7 km/h 66 % 0.0 mm
10:09 24.3 °C 17.3 °C 1013.8 hPa NW 5.6 km/h 5.6 km/h 65 % 0.0 mm
10:14 24.4 °C 17.4 °C 1013.8 hPa WNW 3.9 km/h 3.9 km/h 65 % 0.0 mm
10:19 24.9 °C 17.6 °C 1013.8 hPa West 4.7 km/h 4.7 km/h 64 % 0.0 mm
10:24 24.6 °C 17.1 °C 1013.8 hPa West 13.0 km/h 13.0 km/h 63 % 0.0 mm
10:29 24.7 °C 17.2 °C 1013.8 hPa West 7.4 km/h 7.4 km/h 63 % 0.0 mm
10:34 24.9 °C 17.1 °C 1013.8 hPa West 5.6 km/h 5.6 km/h 62 % 0.0 mm
10:39 24.9 °C 17.1 °C 1013.8 hPa WSW 7.4 km/h 7.4 km/h 62 % 0.0 mm
10:44 24.7 °C 16.2 °C 1013.8 hPa North 14.8 km/h 14.8 km/h 59 % 0.0 mm
10:49 25.2 °C 16.3 °C 1013.8 hPa WNW 11.1 km/h 11.1 km/h 58 % 0.0 mm
10:54 25.3 °C 16.2 °C 1013.8 hPa West 14.8 km/h 14.8 km/h 57 % 0.0 mm
10:59 25.2 °C 15.5 °C 1013.8 hPa West 13.0 km/h 13.0 km/h 55 % 0.0 mm
11:04 25.6 °C 16.2 °C 1013.8 hPa SSW 7.4 km/h 7.4 km/h 56 % 0.0 mm
11:09 25.9 °C 16.4 °C 1013.8 hPa West 7.4 km/h 7.4 km/h 56 % 0.0 mm
11:14 26.2 °C 16.4 °C 1013.8 hPa WNW 5.6 km/h 5.8 km/h 55 % 0.0 mm
11:19 26.4 °C 16.3 °C 1013.8 hPa WSW 7.4 km/h 7.4 km/h 54 % 0.0 mm
11:24 26.6 °C 16.5 °C 1013.8 hPa SW 5.8 km/h 5.8 km/h 54 % 0.0 mm
11:29 26.9 °C 16.5 °C 1013.8 hPa West 10.3 km/h 10.3 km/h 53 % 0.0 mm
11:34 26.8 °C 16.1 °C 1013.8 hPa SW 11.1 km/h 11.1 km/h 52 % 0.0 mm
11:39 27.0 °C 16.0 °C 1013.8 hPa WSW 9.3 km/h 9.3 km/h 51 % 0.0 mm
11:44 27.2 °C 16.2 °C 1013.8 hPa SW 7.6 km/h 7.6 km/h 51 % 0.0 mm
11:49 27.1 °C 15.4 °C 1013.8 hPa West 18.5 km/h 18.5 km/h 49 % 0.0 mm
11:54 27.3 °C 15.7 °C 1013.8 hPa NNW 24.1 km/h 24.1 km/h 49 % 0.0 mm
11:59 27.4 °C 15.7 °C 1013.8 hPa SW 9.3 km/h 9.3 km/h 49 % 0.0 mm
12:04 27.6 °C 15.9 °C 1013.8 hPa WSW 24.1 km/h 24.1 km/h 49 % 0.0 mm
12:09 27.8 °C 16.1 °C 1013.8 hPa WNW 14.8 km/h 14.8 km/h 49 % 0.0 mm
12:14 28.0 °C 15.9 °C 1013.8 hPa SSW 9.3 km/h 9.3 km/h 48 % 0.0 mm
12:19 28.2 °C 16.2 °C 1013.8 hPa SW 14.8 km/h 14.8 km/h 48 % 0.0 mm
12:24 28.8 °C 17.0 °C 1013.8 hPa SW 5.6 km/h 5.6 km/h 49 % 0.0 mm
12:29 29.1 °C 16.6 °C 1013.8 hPa West 7.9 km/h 7.9 km/h 47 % 0.0 mm
12:34 29.2 °C 16.7 °C 1013.8 hPa West 5.6 km/h 5.6 km/h 47 % 0.0 mm
12:39 29.5 °C 17.0 °C 1013.8 hPa WNW 5.3 km/h 5.3 km/h 47 % 0.0 mm
12:44 29.5 °C 16.7 °C 1013.8 hPa SW 13.0 km/h 13.0 km/h 46 % 0.0 mm
12:49 29.5 °C 16.7 °C 1013.8 hPa SW 5.8 km/h 6.1 km/h 46 % 0.0 mm
12:54 29.5 °C 16.3 °C 1013.8 hPa SW 11.1 km/h 11.1 km/h 45 % 0.0 mm
12:59 29.7 °C 16.2 °C 1013.8 hPa WSW 13.0 km/h 13.0 km/h 44 % 0.0 mm
13:04 29.7 °C 15.8 °C 1012.8 hPa WSW 14.8 km/h 14.8 km/h 43 % 0.0 mm
13:09 30.3 °C 16.3 °C 1012.8 hPa West 9.3 km/h 9.3 km/h 43 % 0.0 mm
13:14 30.0 °C 15.7 °C 1012.8 hPa SW 16.7 km/h 16.7 km/h 42 % 0.0 mm
13:19 30.3 °C 15.9 °C 1012.8 hPa SW 11.1 km/h 11.1 km/h 42 % 0.0 mm
13:24 30.7 °C 16.3 °C 1012.8 hPa SW 6.1 km/h 6.1 km/h 42 % 0.0 mm
13:29 30.6 °C 16.2 °C 1012.8 hPa West 9.7 km/h 9.7 km/h 42 % 0.0 mm
13:34 30.3 °C 15.6 °C 1012.8 hPa West 7.4 km/h 7.4 km/h 41 % 0.0 mm
13:39 30.4 °C 15.3 °C 1012.8 hPa West 9.3 km/h 9.3 km/h 40 % 0.0 mm
13:44 30.6 °C 15.4 °C 1012.8 hPa West 9.3 km/h 9.3 km/h 40 % 0.0 mm
13:49 31.2 °C 16.0 °C 1011.7 hPa West 11.1 km/h 11.1 km/h 40 % 0.0 mm
13:54 31.0 °C 15.4 °C 1011.7 hPa North 9.3 km/h 9.3 km/h 39 % 0.0 mm
13:59 30.9 °C 15.3 °C 1011.7 hPa WSW 13.0 km/h 13.0 km/h 39 % 0.0 mm
14:04 31.1 °C 15.5 °C 1012.8 hPa SW 11.1 km/h 11.1 km/h 39 % 0.0 mm
14:09 31.4 °C 15.4 °C 1012.8 hPa WSW 5.6 km/h 5.6 km/h 38 % 0.0 mm
14:14 31.1 °C 14.7 °C 1012.8 hPa WSW 11.1 km/h 11.1 km/h 37 % 0.0 mm
14:19 31.8 °C 15.7 °C 1011.7 hPa WNW 5.8 km/h 5.8 km/h 38 % 0.0 mm
14:24 32.2 °C 16.5 °C 1011.7 hPa SW 6.1 km/h 6.1 km/h 39 % 0.0 mm
14:29 32.0 °C 15.9 °C 1011.7 hPa West 9.3 km/h 9.3 km/h 38 % 0.0 mm
14:34 31.9 °C 15.8 °C 1011.7 hPa WSW 9.3 km/h 9.3 km/h 38 % 0.0 mm
14:39 31.5 °C 15.1 °C 1011.7 hPa SW 7.4 km/h 7.4 km/h 37 % 0.0 mm
14:44 31.8 °C 14.9 °C 1011.7 hPa WNW 5.6 km/h 5.6 km/h 36 % 0.0 mm
14:49 32.5 °C 15.5 °C 1011.7 hPa WSW 9.7 km/h 9.7 km/h 36 % 0.0 mm
14:54 32.8 °C 15.3 °C 1011.7 hPa South 9.3 km/h 9.3 km/h 35 % 0.0 mm
14:59 33.2 °C 15.7 °C 1011.7 hPa WSW 9.3 km/h 9.3 km/h 35 % 0.0 mm
15:04 32.9 °C 15.4 °C 1010.7 hPa South 5.6 km/h 5.6 km/h 35 % 0.0 mm
15:10 33.2 °C 14.8 °C 1010.7 hPa West 9.3 km/h 9.3 km/h 33 % 0.0 mm
15:15 33.9 °C 16.3 °C 1010.7 hPa SSW 5.6 km/h 5.6 km/h 35 % 0.0 mm
15:20 33.8 °C 15.7 °C 1011.7 hPa West 7.4 km/h 7.4 km/h 34 % 0.0 mm
15:25 33.5 °C 15.0 °C 1011.7 hPa WSW 7.4 km/h 7.4 km/h 33 % 0.0 mm
15:30 33.9 °C 15.4 °C 1011.7 hPa SW 3.7 km/h 5.3 km/h 33 % 0.0 mm
15:32 34.0 °C 15.4 °C 1011.7 hPa WSW 9.3 km/h 9.3 km/h 33 % 0.0 mm
15:37 32.7 °C 13.3 °C 1011.7 hPa ESE 7.4 km/h 7.4 km/h 31 % 0.0 mm
15:42 32.8 °C 13.9 °C 1011.7 hPa West 9.3 km/h 9.3 km/h 32 % 0.0 mm
15:47 33.1 °C 14.2 °C 1011.7 hPa SSE 13.0 km/h 13.0 km/h 32 % 0.0 mm
15:52 31.0 °C 13.7 °C 1011.7 hPa ESE 13.0 km/h 13.0 km/h 35 % 0.0 mm
15:57 30.3 °C 14.0 °C 1011.7 hPa ENE 13.0 km/h 13.0 km/h 37 % 0.0 mm
16:02 30.0 °C 14.6 °C 1011.7 hPa NE 14.8 km/h 14.8 km/h 39 % 0.0 mm
16:07 30.2 °C 14.7 °C 1011.7 hPa East 14.8 km/h 14.8 km/h 39 % 0.0 mm
16:12 29.9 °C 14.8 °C 1011.7 hPa East 19.8 km/h 19.8 km/h 40 % 0.0 mm
16:17 29.4 °C 14.4 °C 1011.7 hPa ESE 22.2 km/h 22.2 km/h 40 % 0.0 mm
16:22 29.3 °C 14.7 °C 1011.7 hPa ENE 16.7 km/h 16.7 km/h 41 % 0.0 mm
16:27 29.5 °C 15.2 °C 1011.7 hPa ENE 16.7 km/h 16.7 km/h 42 % 0.0 mm
16:32 29.8 °C 15.5 °C 1011.7 hPa NNE 11.1 km/h 11.1 km/h 42 % 0.0 mm
16:37 29.9 °C 15.6 °C 1011.7 hPa East 13.0 km/h 13.0 km/h 42 % 0.0 mm
16:42 29.9 °C 15.6 °C 1011.7 hPa ESE 20.4 km/h 20.4 km/h 42 % 0.0 mm
16:43 29.8 °C 15.5 °C 1011.7 hPa ESE 11.1 km/h 11.1 km/h 42 % 0.0 mm
16:48 29.7 °C 15.8 °C 1011.7 hPa ESE 11.1 km/h 11.1 km/h 43 % 0.0 mm
16:53 29.7 °C 15.8 °C 1010.7 hPa ESE 13.0 km/h 13.0 km/h 43 % 0.0 mm
16:58 29.4 °C 15.5 °C 1010.7 hPa ESE 18.5 km/h 18.5 km/h 43 % 0.0 mm
17:03 29.4 °C 15.5 °C 1010.7 hPa ESE 16.7 km/h 16.7 km/h 43 % 0.0 mm
17:08 29.4 °C 15.5 °C 1010.7 hPa ESE 14.8 km/h 14.8 km/h 43 % 0.0 mm
17:13 29.4 °C 15.9 °C 1010.7 hPa ESE 18.5 km/h 18.5 km/h 44 % 0.0 mm
17:18 29.3 °C 15.8 °C 1010.7 hPa ESE 16.7 km/h 16.7 km/h 44 % 0.0 mm
17:23 29.3 °C 15.8 °C 1010.7 hPa ENE 18.5 km/h 18.5 km/h 44 % 0.0 mm
17:28 29.1 °C 15.6 °C 1010.7 hPa East 16.7 km/h 16.7 km/h 44 % 0.0 mm
17:33 29.0 °C 15.5 °C 1010.7 hPa ESE 22.2 km/h 22.2 km/h 44 % 0.0 mm
17:38 28.9 °C 15.8 °C 1010.7 hPa East 19.0 km/h 19.0 km/h 45 % 0.0 mm
17:43 28.5 °C 15.8 °C 1010.7 hPa SE 16.7 km/h 16.7 km/h 46 % 0.0 mm
17:48 28.6 °C 15.8 °C 1010.7 hPa NE 11.1 km/h 11.1 km/h 46 % 0.0 mm
17:53 28.6 °C 15.8 °C 1010.7 hPa SE 13.7 km/h 13.7 km/h 46 % 0.0 mm
17:58 28.3 °C 15.6 °C 1010.7 hPa NE 23.0 km/h 23.0 km/h 46 % 0.0 mm
18:03 28.2 °C 15.8 °C 1010.7 hPa NE 18.5 km/h 18.5 km/h 47 % 0.0 mm
18:08 28.1 °C 15.7 °C 1010.7 hPa ESE 13.0 km/h 13.0 km/h 47 % 0.0 mm
18:13 28.0 °C 15.6 °C 1010.7 hPa East 11.1 km/h 11.1 km/h 47 % 0.0 mm
18:18 27.9 °C 15.6 °C 1010.7 hPa ESE 20.4 km/h 20.4 km/h 47 % 0.0 mm
18:23 27.9 °C 15.6 °C 1010.7 hPa SSE 22.2 km/h 22.2 km/h 47 % 0.0 mm
18:28 27.9 °C 15.6 °C 1010.7 hPa ESE 11.1 km/h 11.1 km/h 47 % 0.0 mm
18:33 27.8 °C 15.4 °C 1010.7 hPa East 13.0 km/h 13.0 km/h 47 % 0.0 mm
18:38 27.5 °C 15.5 °C 1011.7 hPa ENE 13.0 km/h 13.0 km/h 48 % 0.0 mm
18:43 27.4 °C 15.7 °C 1011.7 hPa East 13.7 km/h 13.7 km/h 49 % 0.0 mm
18:48 27.2 °C 15.6 °C 1011.7 hPa ENE 11.1 km/h 11.1 km/h 49 % 0.0 mm
18:53 27.1 °C 15.4 °C 1010.7 hPa NNE 9.7 km/h 9.7 km/h 49 % 0.0 mm
18:58 27.1 °C 15.8 °C 1010.7 hPa ENE 13.0 km/h 13.0 km/h 50 % 0.0 mm
19:03 27.0 °C 15.4 °C 1010.7 hPa ESE 16.7 km/h 16.7 km/h 49 % 0.0 mm
19:08 26.8 °C 15.8 °C 1010.7 hPa NNE 14.8 km/h 14.8 km/h 51 % 0.0 mm
19:13 26.8 °C 15.5 °C 1010.7 hPa NNE 11.1 km/h 11.1 km/h 50 % 0.0 mm
19:18 26.8 °C 15.8 °C 1010.7 hPa ENE 11.1 km/h 11.1 km/h 51 % 0.0 mm
19:23 26.8 °C 15.8 °C 1011.7 hPa ENE 5.8 km/h 5.8 km/h 51 % 0.0 mm
19:28 26.7 °C 15.7 °C 1011.7 hPa ESE 9.3 km/h 9.3 km/h 51 % 0.0 mm
19:33 26.7 °C 15.7 °C 1011.7 hPa ESE 15.1 km/h 15.1 km/h 51 % 0.0 mm
19:38 26.4 °C 15.4 °C 1011.7 hPa East 13.0 km/h 13.0 km/h 51 % 0.0 mm
19:43 26.4 °C 15.4 °C 1011.7 hPa NE 13.0 km/h 13.0 km/h 51 % 0.0 mm
19:48 26.2 °C 15.3 °C 1011.7 hPa East 12.2 km/h 12.2 km/h 51 % 0.0 mm
19:53 26.0 °C 15.4 °C 1011.7 hPa ENE 9.7 km/h 9.7 km/h 52 % 0.0 mm
19:58 25.9 °C 15.3 °C 1011.7 hPa East 9.3 km/h 9.3 km/h 52 % 0.0 mm
20:03 25.7 °C 15.4 °C 1011.7 hPa East 14.8 km/h 14.8 km/h 53 % 0.0 mm
20:08 25.5 °C 15.2 °C 1011.7 hPa ESE 9.3 km/h 9.3 km/h 53 % 0.0 mm
20:13 25.4 °C 15.4 °C 1011.7 hPa NE 13.0 km/h 13.0 km/h 54 % 0.0 mm
20:18 25.3 °C 15.3 °C 1011.7 hPa ENE 11.1 km/h 11.1 km/h 54 % 0.0 mm
20:23 25.3 °C 15.3 °C 1010.7 hPa ESE 9.3 km/h 9.3 km/h 54 % 0.0 mm
20:28 25.2 °C 15.2 °C 1010.7 hPa East 14.8 km/h 14.8 km/h 54 % 0.0 mm
20:33 25.2 °C 15.5 °C 1010.7 hPa ENE 5.6 km/h 5.6 km/h 55 % 0.0 mm
20:38 25.1 °C 15.4 °C 1011.7 hPa ESE 5.8 km/h 5.8 km/h 55 % 0.0 mm
20:43 25.1 °C 15.4 °C 1011.7 hPa ESE 10.3 km/h 10.3 km/h 55 % 0.0 mm
20:48 25.1 °C 15.7 °C 1011.7 hPa East 7.4 km/h 7.4 km/h 56 % 0.0 mm
20:53 24.9 °C 15.8 °C 1011.7 hPa East 13.0 km/h 13.0 km/h 57 % 0.0 mm
20:58 24.8 °C 15.7 °C 1011.7 hPa East 5.6 km/h 5.6 km/h 57 % 0.0 mm
21:03 24.7 °C 15.6 °C 1011.7 hPa ESE 5.6 km/h 5.6 km/h 57 % 0.0 mm
21:08 24.6 °C 15.5 °C 1012.8 hPa NE 9.3 km/h 9.3 km/h 57 % 0.0 mm
21:13 24.5 °C 15.4 °C 1012.8 hPa ENE 9.3 km/h 9.3 km/h 57 % 0.0 mm
21:15 21.8 °C 17.4 °C 1013.8 hPa NW 1.6 km/h 3.2 km/h 76 % 0.0 mm
21:18 24.4 °C 15.3 °C 1012.8 hPa ESE 7.4 km/h 7.4 km/h 57 % 0.0 mm
21:23 24.3 °C 15.2 °C 1012.8 hPa East 11.1 km/h 11.1 km/h 57 % 0.0 mm
21:25 21.8 °C 17.6 °C 1013.8 hPa Calm   3.2 km/h 77 % 0.0 mm
21:28 24.2 °C 15.7 °C 1012.8 hPa ESE 11.1 km/h 11.1 km/h 59 % 0.0 mm
21:33 24.1 °C 15.6 °C 1012.8 hPa NNE 5.6 km/h 5.8 km/h 59 % 0.0 mm
21:35 21.8 °C 17.6 °C 1013.8 hPa WSW 1.6 km/h 3.2 km/h 77 % 0.0 mm
21:38 24.0 °C 15.8 °C 1012.8 hPa East 9.3 km/h 9.3 km/h 60 % 0.0 mm
21:43 24.0 °C 16.3 °C 1012.8 hPa ESE 13.0 km/h 13.0 km/h 62 % 0.0 mm
21:45 21.8 °C 17.6 °C 1013.8 hPa WSW 1.6 km/h 3.2 km/h 77 % 0.0 mm
21:48 23.9 °C 16.9 °C 1012.8 hPa NE 19.5 km/h 19.5 km/h 65 % 0.0 mm
21:53 23.7 °C 16.7 °C 1013.8 hPa NNE 9.3 km/h 9.3 km/h 65 % 0.0 mm
21:55 21.7 °C 17.7 °C 1013.8 hPa WSW 1.6 km/h 3.2 km/h 78 % 0.0 mm
21:58 23.7 °C 16.9 °C 1013.8 hPa East 7.4 km/h 7.4 km/h 66 % 0.0 mm
22:03 23.6 °C 17.3 °C 1013.8 hPa ESE 13.0 km/h 13.0 km/h 68 % 0.0 mm
22:05 21.7 °C 17.5 °C 1013.8 hPa WSW 3.2 km/h 4.8 km/h 77 % 0.0 mm
22:08 23.5 °C 17.5 °C 1013.8 hPa ESE 13.0 km/h 13.0 km/h 69 % 0.0 mm
22:13 23.4 °C 17.4 °C 1013.8 hPa East 9.3 km/h 9.3 km/h 69 % 0.0 mm
22:15 21.5 °C 17.1 °C 1013.8 hPa West 3.2 km/h 6.4 km/h 76 % 0.0 mm
22:18 23.3 °C 17.7 °C 1013.8 hPa ESE 13.0 km/h 13.0 km/h 71 % 0.0 mm
22:23 23.2 °C 17.7 °C 1013.8 hPa NE 9.3 km/h 9.3 km/h 71 % 0.0 mm
22:25 21.5 °C 16.0 °C 1013.8 hPa West 4.8 km/h 4.8 km/h 71 % 0.0 mm
22:28 23.2 °C 17.7 °C 1013.8 hPa ESE 9.3 km/h 9.3 km/h 71 % 0.0 mm
22:33 23.1 °C 17.6 °C 1013.8 hPa ENE 7.4 km/h 7.4 km/h 71 % 0.0 mm
22:35 21.6 °C 15.0 °C 1014.8 hPa West 4.8 km/h 6.4 km/h 66 % 0.0 mm
22:38 23.1 °C 17.6 °C 1013.8 hPa SE 7.6 km/h 7.6 km/h 71 % 0.0 mm
22:43 23.0 °C 17.7 °C 1013.8 hPa East 4.7 km/h 4.7 km/h 72 % 0.0 mm
22:45 21.5 °C 14.7 °C 1014.8 hPa WSW 3.2 km/h 4.8 km/h 65 % 0.0 mm
22:48 23.0 °C 17.9 °C 1013.8 hPa ENE 10.0 km/h 10.0 km/h 73 % 0.0 mm
22:53 23.0 °C 17.9 °C 1013.8 hPa East 7.4 km/h 7.4 km/h 73 % 0.0 mm
22:55 21.4 °C 14.1 °C 1013.8 hPa West 3.2 km/h 6.4 km/h 63 % 0.0 mm
22:58 23.0 °C 17.9 °C 1013.8 hPa East 7.9 km/h 7.9 km/h 73 % 0.0 mm
23:03 22.9 °C 17.8 °C 1013.8 hPa ESE 9.3 km/h 9.3 km/h 73 % 0.0 mm
23:05 21.2 °C 13.4 °C 1013.8 hPa West 3.2 km/h 4.8 km/h 61 % 0.0 mm
23:08 22.9 °C 18.0 °C 1013.8 hPa East 7.9 km/h 7.9 km/h 74 % 0.0 mm
23:13 22.9 °C 18.0 °C 1013.8 hPa ESE 5.6 km/h 5.6 km/h 74 % 0.0 mm
23:15 21.0 °C 12.9 °C 1013.8 hPa West 1.6 km/h 3.2 km/h 60 % 0.0 mm
23:18 22.8 °C 17.9 °C 1013.8 hPa ENE 9.3 km/h 9.3 km/h 74 % 0.0 mm
23:23 22.8 °C 17.9 °C 1013.8 hPa North 9.3 km/h 9.3 km/h 74 % 0.0 mm
23:25 20.9 °C 12.8 °C 1013.8 hPa West 3.2 km/h 3.2 km/h 60 % 0.0 mm
23:28 22.8 °C 17.9 °C 1013.8 hPa ENE 5.6 km/h 5.6 km/h 74 % 0.0 mm
23:33 22.7 °C 17.8 °C 1013.8 hPa ENE 4.2 km/h 4.2 km/h 74 % 0.0 mm
23:35 20.8 °C 12.5 °C 1013.8 hPa West 3.2 km/h 6.4 km/h 59 % 0.0 mm
23:38 22.7 °C 17.8 °C 1013.8 hPa ENE 3.7 km/h 3.7 km/h 74 % 0.0 mm
23:43 22.6 °C 17.7 °C 1013.8 hPa East 5.0 km/h 5.0 km/h 74 % 0.0 mm
23:45 20.7 °C 12.4 °C 1013.8 hPa West 1.6 km/h 6.4 km/h 59 % 0.0 mm
23:48 22.6 °C 17.7 °C 1013.8 hPa NE 5.6 km/h 5.6 km/h 74 % 0.0 mm
23:53 22.5 °C 17.6 °C 1013.8 hPa NNE 7.4 km/h 7.4 km/h 74 % 0.0 mm
23:55 20.5 °C 11.9 °C 1013.8 hPa West 3.2 km/h 4.8 km/h 58 % 0.0 mm
23:58 22.5 °C 17.6 °C 1013.8 hPa East 5.6 km/h 5.6 km/h 74 % 0.0 mm
Meteo Sesrovires
Elogis d' Weather Underground - 3.75 mb

Guio original per  Jim McMurry - jmcmurry@mwt.net Adaptat per a la plantilla per  Wim van der Kuil - Leuven-Template.eu

Trobareu la nostra informacio del temps tambe a:

Weather Underground

AWEKAS